Time;durP1;ratioP1;P1;durP2;ratioP2;P2;SDS_P1;SDS_P2;PMS_P1;PMS_P2;Temp;Humidity;BMP_temperature;BMP_pressure;BME280_temperature;BME280_humidity;BME280_pressure;Samples;Min_cycle;Max_cycle;Signal;HPM_P1;HPM_P2
2021/06/24 00:01:26;;;;;;;0.03;0.03;;;;;;;;;;5084293;28;20216;-67
2021/06/24 00:03:53;;;;;;;0.10;0.10;;;;;;;;;;5084699;28;20207;-69
2021/06/24 00:06:20;;;;;;;0.05;0.05;;;;;;;;;;5084456;28;20206;-68
2021/06/24 00:08:46;;;;;;;0.10;0.10;;;;;;;;;;5073150;28;20273;-67
2021/06/24 00:11:13;;;;;;;0.00;0.00;;;;;;;;;;5078068;28;20258;-69
2021/06/24 00:13:39;;;;;;;0.10;0.10;;;;;;;;;;5064006;28;20487;-68
2021/06/24 00:16:06;;;;;;;0.10;0.10;;;;;;;;;;5064372;28;20208;-68
2021/06/24 00:18:32;;;;;;;0.10;0.10;;;;;;;;;;5071417;28;20267;-68
2021/06/24 00:20:58;;;;;;;0.00;0.00;;;;;;;;;;5070243;28;20200;-68
2021/06/24 00:23:26;;;;;;;0.10;0.10;;;;;;;;;;5076527;28;20325;-68
2021/06/24 00:25:53;;;;;;;0.10;0.10;;;;;;;;;;5083899;28;20224;-68
2021/06/24 00:28:19;;;;;;;0.05;0.05;;;;;;;;;;5083940;28;20223;-68
2021/06/24 00:30:47;;;;;;;0.10;0.10;;;;;;;;;;5083950;28;20203;-68
2021/06/24 00:33:14;;;;;;;0.08;0.08;;;;;;;;;;5083656;28;20269;-67
2021/06/24 00:35:40;;;;;;;0.08;0.08;;;;;;;;;;5083361;28;20433;-67
2021/06/24 00:38:07;;;;;;;0.10;0.10;;;;;;;;;;5083879;28;20393;-68
2021/06/24 00:40:36;;;;;;;0.05;0.05;;;;;;;;;;5082937;28;20208;-68
2021/06/24 00:43:02;;;;;;;0.00;0.00;;;;;;;;;;5070642;28;20204;-67
2021/06/24 00:45:29;;;;;;;0.10;0.10;;;;;;;;;;5083443;28;20341;-68
2021/06/24 00:47:55;;;;;;;0.05;0.05;;;;;;;;;;5083397;28;20539;-68
2021/06/24 00:50:21;;;;;;;0.00;0.00;;;;;;;;;;5082861;28;20200;-68
2021/06/24 00:52:48;;;;;;;0.00;0.00;;;;;;;;;;5083082;28;20256;-68
2021/06/24 00:55:14;;;;;;;0.08;0.08;;;;;;;;;;5083240;28;20208;-68
2021/06/24 00:57:42;;;;;;;0.10;0.10;;;;;;;;;;5069149;28;20545;-68
2021/06/24 01:00:09;;;;;;;0.08;0.08;;;;;;;;;;5083409;28;20249;-68
2021/06/24 01:02:37;;;;;;;0.10;0.10;;;;;;;;;;5083284;28;20203;-68
2021/06/24 01:05:03;;;;;;;0.05;0.05;;;;;;;;;;5069415;28;20243;-68
2021/06/24 01:07:29;;;;;;;0.10;0.10;;;;;;;;;;5082888;28;20224;-68
2021/06/24 01:09:55;;;;;;;0.00;0.00;;;;;;;;;;5068774;28;20200;-68
2021/06/24 01:12:22;;;;;;;0.10;0.10;;;;;;;;;;5082755;28;20211;-69
2021/06/24 01:14:50;;;;;;;0.00;0.00;;;;;;;;;;5083029;28;20203;-69
2021/06/24 01:17:16;;;;;;;0.05;0.05;;;;;;;;;;5083122;28;20217;-68
2021/06/24 01:19:42;;;;;;;0.00;0.00;;;;;;;;;;5083020;28;20206;-68
2021/06/24 01:22:09;;;;;;;0.10;0.10;;;;;;;;;;5082706;28;20447;-68
2021/06/24 01:24:37;;;;;;;0.00;0.00;;;;;;;;;;5082684;28;20254;-68
2021/06/24 01:27:03;;;;;;;0.10;0.10;;;;;;;;;;5068755;28;20270;-68
2021/06/24 01:29:29;;;;;;;0.10;0.10;;;;;;;;;;5082460;28;20224;-68
2021/06/24 01:31:56;;;;;;;0.10;0.10;;;;;;;;;;5082692;28;20199;-68
2021/06/24 01:34:22;;;;;;;0.10;0.10;;;;;;;;;;5082999;28;20200;-68
2021/06/24 01:36:49;;;;;;;0.10;0.10;;;;;;;;;;5082770;28;20507;-68
2021/06/24 01:39:16;;;;;;;0.00;0.00;;;;;;;;;;5083020;28;20370;-69
2021/06/24 01:41:43;;;;;;;0.10;0.10;;;;;;;;;;5082492;28;20210;-68
2021/06/24 01:44:11;;;;;;;0.00;0.00;;;;;;;;;;5082740;28;20242;-68
2021/06/24 01:46:37;;;;;;;0.05;0.05;;;;;;;;;;5082869;28;20203;-68
2021/06/24 01:49:04;;;;;;;0.03;0.03;;;;;;;;;;5082237;28;20275;-68
2021/06/24 01:51:30;;;;;;;0.10;0.10;;;;;;;;;;5083011;28;20283;-69
2021/06/24 01:53:57;;;;;;;0.10;0.10;;;;;;;;;;5082699;28;20229;-68
2021/06/24 01:56:23;;;;;;;0.05;0.05;;;;;;;;;;5082955;28;20203;-68
2021/06/24 01:58:51;;;;;;;0.10;0.10;;;;;;;;;;5082365;28;20199;-68
2021/06/24 02:01:17;;;;;;;0.10;0.10;;;;;;;;;;5062590;28;20254;-69
2021/06/24 02:03:45;;;;;;;0.10;0.10;;;;;;;;;;5074393;28;20249;-70
2021/06/24 02:06:11;;;;;;;0.05;0.05;;;;;;;;;;5086123;28;20226;-69
2021/06/24 02:08:38;;;;;;;0.10;0.10;;;;;;;;;;5086854;28;20277;-70
2021/06/24 02:11:04;;;;;;;0.10;0.10;;;;;;;;;;5086377;28;20262;-69
2021/06/24 02:13:31;;;;;;;0.10;0.10;;;;;;;;;;5086779;28;20473;-70
2021/06/24 02:15:58;;;;;;;0.10;0.10;;;;;;;;;;5086509;28;20203;-69
2021/06/24 02:18:25;;;;;;;0.10;0.10;;;;;;;;;;5079798;28;20421;-69
2021/06/24 02:20:51;;;;;;;0.10;0.10;;;;;;;;;;5078974;28;20480;-70
2021/06/24 02:23:17;;;;;;;0.00;0.00;;;;;;;;;;5086161;28;20494;-71
2021/06/24 02:25:44;;;;;;;0.10;0.10;;;;;;;;;;5086377;28;20223;-69
2021/06/24 02:28:10;;;;;;;0.08;0.08;;;;;;;;;;5086293;28;20246;-70
2021/06/24 02:30:36;;;;;;;0.10;0.10;;;;;;;;;;5086515;28;20286;-69
2021/06/24 02:33:06;;;;;;;0.10;0.10;;;;;;;;;;5074995;28;20208;-69
2021/06/24 02:35:34;;;;;;;0.10;0.10;;;;;;;;;;5083651;28;20391;-69
2021/06/24 02:38:00;;;;;;;0.00;0.00;;;;;;;;;;5085843;28;20243;-70
2021/06/24 02:40:26;;;;;;;0.00;0.00;;;;;;;;;;5085659;28;20499;-69
2021/06/24 02:42:53;;;;;;;0.07;0.07;;;;;;;;;;5085852;28;20237;-69
2021/06/24 02:45:19;;;;;;;0.10;0.10;;;;;;;;;;5085922;28;20203;-70
2021/06/24 02:47:45;;;;;;;0.00;0.00;;;;;;;;;;5085872;28;20214;-69
2021/06/24 02:50:14;;;;;;;0.03;0.03;;;;;;;;;;5085650;28;20214;-69
2021/06/24 02:52:41;;;;;;;0.10;0.10;;;;;;;;;;5081236;28;20284;-69
2021/06/24 02:55:07;;;;;;;0.03;0.03;;;;;;;;;;5076540;28;20207;-68
2021/06/24 02:57:34;;;;;;;0.10;0.10;;;;;;;;;;5085414;28;20234;-69
2021/06/24 03:00:00;;;;;;;0.10;0.10;;;;;;;;;;5085508;28;20211;-69
2021/06/24 03:02:26;;;;;;;0.07;0.07;;;;;;;;;;5085154;28;20204;-69
2021/06/24 03:04:53;;;;;;;0.10;0.10;;;;;;;;;;5072603;28;20210;-69
2021/06/24 03:07:20;;;;;;;0.05;0.05;;;;;;;;;;5086368;28;20203;-69
2021/06/24 03:09:47;;;;;;;0.03;0.03;;;;;;;;;;5085664;28;20251;-69
2021/06/24 03:12:13;;;;;;;0.00;0.00;;;;;;;;;;5085768;28;20395;-69
2021/06/24 03:14:39;;;;;;;0.10;0.10;;;;;;;;;;5085187;28;20284;-69
2021/06/24 03:17:05;;;;;;;0.03;0.03;;;;;;;;;;5077798;28;20200;-69
2021/06/24 03:19:32;;;;;;;0.10;0.10;;;;;;;;;;5081056;28;20296;-69
2021/06/24 03:21:58;;;;;;;0.00;0.00;;;;;;;;;;5085282;28;20214;-69
2021/06/24 03:24:26;;;;;;;0.07;0.07;;;;;;;;;;5085419;28;20388;-69
2021/06/24 03:26:52;;;;;;;0.00;0.00;;;;;;;;;;5071728;28;20208;-69
2021/06/24 03:29:18;;;;;;;0.05;0.05;;;;;;;;;;5085421;28;20530;-69
2021/06/24 03:31:45;;;;;;;0.00;0.00;;;;;;;;;;5085128;28;20544;-69
2021/06/24 03:34:11;;;;;;;0.05;0.05;;;;;;;;;;5071528;28;20270;-69
2021/06/24 03:36:38;;;;;;;0.05;0.05;;;;;;;;;;5085088;28;20204;-69
2021/06/24 03:39:04;;;;;;;0.10;0.10;;;;;;;;;;5084868;28;20195;-69
2021/06/24 03:41:32;;;;;;;0.10;0.10;;;;;;;;;;5084589;28;20203;-69
2021/06/24 03:43:58;;;;;;;0.10;0.10;;;;;;;;;;5082210;28;20254;-69
2021/06/24 03:46:24;;;;;;;0.10;0.10;;;;;;;;;;5064988;28;20266;-69
2021/06/24 03:48:51;;;;;;;0.03;0.03;;;;;;;;;;5065574;28;20278;-69
2021/06/24 03:51:17;;;;;;;0.00;0.00;;;;;;;;;;5084623;28;20210;-70
2021/06/24 03:53:43;;;;;;;0.10;0.10;;;;;;;;;;5084400;28;20206;-69
2021/06/24 03:56:10;;;;;;;0.08;0.08;;;;;;;;;;5083874;28;20265;-69
2021/06/24 03:58:38;;;;;;;0.10;0.10;;;;;;;;;;5084225;28;20203;-69
2021/06/24 04:01:04;;;;;;;0.00;0.00;;;;;;;;;;5069997;28;20378;-69
2021/06/24 04:03:30;;;;;;;0.10;0.10;;;;;;;;;;5083946;28;20455;-68
2021/06/24 04:05:57;;;;;;;0.10;0.10;;;;;;;;;;5084034;28;20214;-68
2021/06/24 04:08:23;;;;;;;0.10;0.10;;;;;;;;;;5084090;28;20225;-67
2021/06/24 04:10:49;;;;;;;0.07;0.07;;;;;;;;;;5083888;28;20260;-67
2021/06/24 04:13:15;;;;;;;0.07;0.07;;;;;;;;;;5083966;28;20206;-67
2021/06/24 04:15:43;;;;;;;0.08;0.08;;;;;;;;;;5084101;28;20207;-68
2021/06/24 04:18:09;;;;;;;0.10;0.10;;;;;;;;;;5083889;28;20419;-68
2021/06/24 04:20:36;;;;;;;0.10;0.10;;;;;;;;;;5083974;28;20491;-68
2021/06/24 04:23:03;;;;;;;0.10;0.10;;;;;;;;;;5084110;28;20364;-68
2021/06/24 04:25:29;;;;;;;0.07;0.07;;;;;;;;;;5075080;28;20273;-68
2021/06/24 04:27:58;;;;;;;0.07;0.07;;;;;;;;;;5064321;28;20229;-69
2021/06/24 04:30:24;;;;;;;0.10;0.10;;;;;;;;;;5080506;28;20294;-68
2021/06/24 04:32:52;;;;;;;0.10;0.10;;;;;;;;;;5073218;28;20260;-68
2021/06/24 04:35:18;;;;;;;0.10;0.10;;;;;;;;;;5083828;28;20247;-68
2021/06/24 04:37:45;;;;;;;0.10;0.10;;;;;;;;;;5083824;28;20228;-68
2021/06/24 04:40:12;;;;;;;0.07;0.07;;;;;;;;;;5083616;28;20424;-69
2021/06/24 04:42:38;;;;;;;0.10;0.10;;;;;;;;;;5083400;28;20213;-68
2021/06/24 04:45:05;;;;;;;0.10;0.10;;;;;;;;;;5083732;28;20206;-68
2021/06/24 04:47:32;;;;;;;0.00;0.00;;;;;;;;;;5083365;28;20205;-69
2021/06/24 04:49:59;;;;;;;0.10;0.10;;;;;;;;;;5083629;28;20242;-68
2021/06/24 04:52:25;;;;;;;0.03;0.03;;;;;;;;;;5083568;28;20210;-68
2021/06/24 04:54:52;;;;;;;0.00;0.00;;;;;;;;;;5083461;28;20228;-68
2021/06/24 04:57:18;;;;;;;0.03;0.03;;;;;;;;;;5083277;28;20268;-68
2021/06/24 04:59:44;;;;;;;0.00;0.00;;;;;;;;;;5083527;28;20426;-69
2021/06/24 05:02:11;;;;;;;0.00;0.00;;;;;;;;;;5071228;28;20213;-68
2021/06/24 05:04:37;;;;;;;0.00;0.00;;;;;;;;;;5082213;28;20199;-68
2021/06/24 05:07:08;;;;;;;0.10;0.10;;;;;;;;;;5072183;28;20252;-68
2021/06/24 05:09:39;;;;;;;0.00;0.00;;;;;;;;;;5080581;28;20316;-68
2021/06/24 05:12:05;;;;;;;0.10;0.10;;;;;;;;;;5083125;28;20210;-68
2021/06/24 05:14:31;;;;;;;0.10;0.10;;;;;;;;;;5083531;28;20247;-68
2021/06/24 05:16:58;;;;;;;0.10;0.10;;;;;;;;;;5083383;28;20517;-69
2021/06/24 05:19:24;;;;;;;0.08;0.08;;;;;;;;;;5083006;28;20248;-69
2021/06/24 05:21:51;;;;;;;0.00;0.00;;;;;;;;;;5083224;28;20259;-69
2021/06/24 05:24:19;;;;;;;0.07;0.07;;;;;;;;;;5071652;28;20274;-70
2021/06/24 05:26:45;;;;;;;0.10;0.10;;;;;;;;;;5068670;28;20206;-70
2021/06/24 05:29:12;;;;;;;0.10;0.10;;;;;;;;;;5076820;28;20223;-69
2021/06/24 05:31:39;;;;;;;0.10;0.10;;;;;;;;;;5071416;28;20206;-70
2021/06/24 05:34:05;;;;;;;0.00;0.00;;;;;;;;;;5076860;28;20340;-70
2021/06/24 05:36:33;;;;;;;0.10;0.10;;;;;;;;;;5077184;28;20209;-69
2021/06/24 05:38:59;;;;;;;0.08;0.08;;;;;;;;;;5076971;28;20199;-70
2021/06/24 05:41:27;;;;;;;0.10;0.10;;;;;;;;;;5078686;28;20327;-67
2021/06/24 05:43:53;;;;;;;0.10;0.10;;;;;;;;;;5078850;28;20202;-69
2021/06/24 05:46:20;;;;;;;0.07;0.07;;;;;;;;;;5073006;28;20200;-69
2021/06/24 05:48:46;;;;;;;0.10;0.10;;;;;;;;;;5076529;28;20210;-69
2021/06/24 05:51:12;;;;;;;0.10;0.10;;;;;;;;;;5077050;28;20216;-68
2021/06/24 05:53:38;;;;;;;0.10;0.10;;;;;;;;;;5075141;28;20208;-69
2021/06/24 05:56:05;;;;;;;0.10;0.10;;;;;;;;;;5080710;28;20221;-68
2021/06/24 05:58:32;;;;;;;0.10;0.10;;;;;;;;;;5079377;28;20531;-68
2021/06/24 06:01:00;;;;;;;0.10;0.10;;;;;;;;;;5072044;28;20299;-69
2021/06/24 06:03:26;;;;;;;0.03;0.03;;;;;;;;;;5074425;28;20275;-70
2021/06/24 06:05:53;;;;;;;0.10;0.10;;;;;;;;;;5072889;28;20520;-70
2021/06/24 06:08:20;;;;;;;0.00;0.00;;;;;;;;;;5077137;28;20390;-70
2021/06/24 06:10:47;;;;;;;0.10;0.10;;;;;;;;;;5076858;28;20254;-70
2021/06/24 06:13:13;;;;;;;0.10;0.10;;;;;;;;;;5074399;28;20199;-69
2021/06/24 06:15:41;;;;;;;0.08;0.08;;;;;;;;;;5079355;28;20206;-70
2021/06/24 06:18:11;;;;;;;0.00;0.00;;;;;;;;;;5080642;28;20270;-70
2021/06/24 06:20:38;;;;;;;0.00;0.00;;;;;;;;;;5072562;28;20478;-70
2021/06/24 06:23:04;;;;;;;0.10;0.10;;;;;;;;;;5073627;28;20434;-70
2021/06/24 06:25:31;;;;;;;0.10;0.10;;;;;;;;;;5067940;28;20297;-70
2021/06/24 06:27:57;;;;;;;0.00;0.00;;;;;;;;;;5077276;28;20206;-70
2021/06/24 06:30:25;;;;;;;0.05;0.05;;;;;;;;;;5081710;28;20268;-71
2021/06/24 06:32:53;;;;;;;0.00;0.00;;;;;;;;;;5064733;28;20225;-69
2021/06/24 06:35:19;;;;;;;0.10;0.10;;;;;;;;;;5077473;28;20203;-70
2021/06/24 06:37:45;;;;;;;0.10;0.10;;;;;;;;;;5070581;28;20203;-70
2021/06/24 06:40:12;;;;;;;0.00;0.00;;;;;;;;;;5082151;28;20206;-70
2021/06/24 06:42:39;;;;;;;0.03;0.03;;;;;;;;;;5078503;28;20214;-70
2021/06/24 06:45:06;;;;;;;0.10;0.10;;;;;;;;;;5074184;28;20201;-70
2021/06/24 06:47:32;;;;;;;0.10;0.10;;;;;;;;;;5068100;28;20226;-69
2021/06/24 06:50:00;;;;;;;0.10;0.10;;;;;;;;;;5082266;28;20320;-70
2021/06/24 06:52:26;;;;;;;0.10;0.10;;;;;;;;;;5080238;28;20217;-69
2021/06/24 06:54:52;;;;;;;0.00;0.00;;;;;;;;;;5074735;28;20264;-69
2021/06/24 06:57:19;;;;;;;0.10;0.10;;;;;;;;;;5071454;28;20212;-69
2021/06/24 06:59:45;;;;;;;0.00;0.00;;;;;;;;;;5074082;28;20214;-69
2021/06/24 07:02:11;;;;;;;0.00;0.00;;;;;;;;;;5085514;28;20245;-69
2021/06/24 07:04:38;;;;;;;0.00;0.00;;;;;;;;;;5072660;28;20202;-69
2021/06/24 07:07:05;;;;;;;0.10;0.10;;;;;;;;;;5079781;28;20540;-68
2021/06/24 07:09:31;;;;;;;0.10;0.10;;;;;;;;;;5079473;28;20222;-69
2021/06/24 07:11:58;;;;;;;0.10;0.10;;;;;;;;;;5078796;28;20382;-69
2021/06/24 07:14:24;;;;;;;0.10;0.10;;;;;;;;;;5085357;28;20527;-69
2021/06/24 07:16:50;;;;;;;0.10;0.10;;;;;;;;;;5079163;28;20199;-68
2021/06/24 07:19:16;;;;;;;0.07;0.07;;;;;;;;;;5079674;28;20215;-69
2021/06/24 07:21:43;;;;;;;0.10;0.10;;;;;;;;;;5084730;28;20210;-69
2021/06/24 07:24:10;;;;;;;0.00;0.00;;;;;;;;;;5079096;28;20217;-69
2021/06/24 07:26:39;;;;;;;0.10;0.10;;;;;;;;;;5077829;28;20251;-69
2021/06/24 07:29:05;;;;;;;0.00;0.00;;;;;;;;;;5077819;28;20201;-70
2021/06/24 07:31:32;;;;;;;0.00;0.00;;;;;;;;;;5080539;28;20222;-70
2021/06/24 07:33:58;;;;;;;0.10;0.10;;;;;;;;;;5082260;28;20199;-70
2021/06/24 07:36:24;;;;;;;0.10;0.10;;;;;;;;;;5069124;28;20279;-70
2021/06/24 07:38:50;;;;;;;0.00;0.00;;;;;;;;;;5079005;28;20245;-70
2021/06/24 07:41:20;;;;;;;0.03;0.03;;;;;;;;;;5069553;28;20521;-70
2021/06/24 07:43:46;;;;;;;0.10;0.10;;;;;;;;;;5069999;28;20224;-70
2021/06/24 07:46:12;;;;;;;0.00;0.00;;;;;;;;;;5081015;28;20204;-70
2021/06/24 07:48:38;;;;;;;0.10;0.10;;;;;;;;;;5078227;28;20204;-70
2021/06/24 07:51:05;;;;;;;0.10;0.10;;;;;;;;;;5084726;28;20299;-70
2021/06/24 07:53:31;;;;;;;0.08;0.08;;;;;;;;;;5080764;28;20415;-69
2021/06/24 07:55:57;;;;;;;0.10;0.10;;;;;;;;;;5075091;28;20411;-69
2021/06/24 07:58:25;;;;;;;0.10;0.10;;;;;;;;;;5084666;28;20231;-69
2021/06/24 08:00:51;;;;;;;0.10;0.10;;;;;;;;;;5075865;28;20488;-69
2021/06/24 08:03:18;;;;;;;0.00;0.00;;;;;;;;;;5066216;28;20205;-75
2021/06/24 08:05:44;;;;;;;0.10;0.10;;;;;;;;;;5070027;28;20209;-74
2021/06/24 08:08:11;;;;;;;0.05;0.05;;;;;;;;;;5077735;28;20191;-74
2021/06/24 08:10:37;;;;;;;0.10;0.10;;;;;;;;;;5078420;28;20482;-73
2021/06/24 08:13:03;;;;;;;0.00;0.00;;;;;;;;;;5077079;28;20202;-73
2021/06/24 08:15:31;;;;;;;0.00;0.00;;;;;;;;;;5072712;28;20200;-71
2021/06/24 08:17:57;;;;;;;0.03;0.03;;;;;;;;;;5074248;28;20491;-71
2021/06/24 08:20:24;;;;;;;0.08;0.08;;;;;;;;;;5083267;28;20221;-68
2021/06/24 08:22:50;;;;;;;0.10;0.10;;;;;;;;;;5078593;28;20201;-67
2021/06/24 08:25:16;;;;;;;0.10;0.10;;;;;;;;;;5076986;28;20230;-68
2021/06/24 08:27:43;;;;;;;0.08;0.08;;;;;;;;;;5081394;28;20204;-68
2021/06/24 08:30:09;;;;;;;0.00;0.00;;;;;;;;;;5072714;28;20221;-69
2021/06/24 08:32:38;;;;;;;0.00;0.00;;;;;;;;;;5078936;28;20208;-69
2021/06/24 08:35:05;;;;;;;0.10;0.10;;;;;;;;;;5074309;28;20203;-70
2021/06/24 08:37:31;;;;;;;0.00;0.00;;;;;;;;;;5077658;28;20252;-69
2021/06/24 08:39:58;;;;;;;0.10;0.10;;;;;;;;;;5080510;28;20337;-69
2021/06/24 08:42:24;;;;;;;0.00;0.00;;;;;;;;;;5075475;28;20214;-69
2021/06/24 08:44:51;;;;;;;0.08;0.08;;;;;;;;;;5078446;28;20210;-70
2021/06/24 08:47:17;;;;;;;0.00;0.00;;;;;;;;;;5073403;28;20515;-71
2021/06/24 08:49:45;;;;;;;0.03;0.03;;;;;;;;;;5078978;28;20600;-68
2021/06/24 08:52:11;;;;;;;0.10;0.10;;;;;;;;;;5081520;28;20227;-68
2021/06/24 08:54:38;;;;;;;0.10;0.10;;;;;;;;;;5077592;28;20204;-69
2021/06/24 08:57:04;;;;;;;0.00;0.00;;;;;;;;;;5080970;28;20224;-70
2021/06/24 08:59:31;;;;;;;0.00;0.00;;;;;;;;;;5076084;28;20498;-69
2021/06/24 09:01:58;;;;;;;0.10;0.10;;;;;;;;;;5072610;28;20200;-69
2021/06/24 09:04:25;;;;;;;0.00;0.00;;;;;;;;;;5076692;28;20299;-69
2021/06/24 09:06:53;;;;;;;0.00;0.00;;;;;;;;;;5074044;28;20254;-69
2021/06/24 09:09:26;;;;;;;0.10;0.10;;;;;;;;;;5078405;28;20211;-68
2021/06/24 09:12:00;;;;;;;0.10;0.10;;;;;;;;;;5077535;28;20239;-67
2021/06/24 09:14:36;;;;;;;0.00;0.00;;;;;;;;;;5080414;28;20200;-67
2021/06/24 09:17:02;;;;;;;0.08;0.08;;;;;;;;;;5080945;28;20257;-68
2021/06/24 09:19:28;;;;;;;0.00;0.00;;;;;;;;;;5076284;28;20487;-68
2021/06/24 09:21:57;;;;;;;0.00;0.00;;;;;;;;;;5079098;28;20338;-67
2021/06/24 09:24:25;;;;;;;0.10;0.10;;;;;;;;;;5079943;28;20218;-69
2021/06/24 09:26:51;;;;;;;0.05;0.05;;;;;;;;;;5074435;28;20214;-68
2021/06/24 09:29:18;;;;;;;0.10;0.10;;;;;;;;;;5073890;28;20206;-69
2021/06/24 09:31:45;;;;;;;0.00;0.00;;;;;;;;;;5077344;28;20447;-69
2021/06/24 09:34:12;;;;;;;0.00;0.00;;;;;;;;;;5083021;28;20309;-68
2021/06/24 09:36:39;;;;;;;0.10;0.10;;;;;;;;;;5068151;28;20218;-65
2021/06/24 09:39:08;;;;;;;0.00;0.00;;;;;;;;;;5076935;28;20224;-67
2021/06/24 09:41:35;;;;;;;0.00;0.00;;;;;;;;;;5062555;28;20216;-66
2021/06/24 09:44:16;;;;;;;0.00;0.00;;;;;;;;;;5077378;28;20247;-66
2021/06/24 09:46:43;;;;;;;0.05;0.05;;;;;;;;;;5063317;28;20201;-67
2021/06/24 09:49:09;;;;;;;0.00;0.00;;;;;;;;;;5080148;28;20493;-66
2021/06/24 09:51:37;;;;;;;0.05;0.05;;;;;;;;;;5077401;28;20242;-69
2021/06/24 09:54:04;;;;;;;0.00;0.00;;;;;;;;;;5076719;28;20201;-68
2021/06/24 09:56:33;;;;;;;0.10;0.10;;;;;;;;;;5076888;28;20210;-69
2021/06/24 09:59:02;;;;;;;0.03;0.03;;;;;;;;;;5074740;28;20210;-68
2021/06/24 10:01:29;;;;;;;0.00;0.00;;;;;;;;;;5072234;28;20488;-68
2021/06/24 10:03:56;;;;;;;0.00;0.00;;;;;;;;;;5076039;28;20495;-68
2021/06/24 10:06:23;;;;;;;0.08;0.08;;;;;;;;;;5074878;28;20219;-68
2021/06/24 10:08:49;;;;;;;0.03;0.03;;;;;;;;;;5081591;28;20247;-68
2021/06/24 10:11:16;;;;;;;0.03;0.03;;;;;;;;;;5078601;28;20303;-69
2021/06/24 10:13:43;;;;;;;0.00;0.00;;;;;;;;;;5076608;28;20258;-68
2021/06/24 10:16:10;;;;;;;0.00;0.00;;;;;;;;;;5076771;28;20229;-66
2021/06/24 10:18:36;;;;;;;0.00;0.00;;;;;;;;;;5076753;28;20385;-67
2021/06/24 10:21:04;;;;;;;0.10;0.10;;;;;;;;;;5076742;28;20561;-66
2021/06/24 10:23:30;;;;;;;0.00;0.00;;;;;;;;;;5076535;28;20213;-68
2021/06/24 10:25:57;;;;;;;0.08;0.08;;;;;;;;;;5079662;28;20225;-65
2021/06/24 10:28:23;;;;;;;0.00;0.00;;;;;;;;;;5080444;28;20249;-68
2021/06/24 10:30:51;;;;;;;0.10;0.10;;;;;;;;;;5081912;28;20216;-66
2021/06/24 10:33:17;;;;;;;0.08;0.08;;;;;;;;;;5077804;28;20247;-68
2021/06/24 10:35:47;;;;;;;0.00;0.00;;;;;;;;;;5080329;28;20278;-67
2021/06/24 10:38:13;;;;;;;0.00;0.00;;;;;;;;;;5084596;28;20202;-66
2021/06/24 10:40:40;;;;;;;0.00;0.00;;;;;;;;;;5085100;28;20213;-67
2021/06/24 10:43:07;;;;;;;0.00;0.00;;;;;;;;;;5079656;28;20570;-68
2021/06/24 10:45:34;;;;;;;0.00;0.00;;;;;;;;;;5081515;28;20208;-68
2021/06/24 10:48:21;;;;;;;0.00;0.00;;;;;;;;;;5084958;28;20201;-67
2021/06/24 10:50:56;;;;;;;0.00;0.00;;;;;;;;;;5079179;28;20274;-70
2021/06/24 10:53:40;;;;;;;0.00;0.00;;;;;;;;;;5078299;28;20204;-68
2021/06/24 10:56:25;;;;;;;0.00;0.00;;;;;;;;;;5080745;28;20296;-68
2021/06/24 10:58:51;;;;;;;0.08;0.08;;;;;;;;;;5076139;28;20217;-67
2021/06/24 11:01:39;;;;;;;0.00;0.00;;;;;;;;;;5076911;28;20205;-67
2021/06/24 11:04:07;;;;;;;0.10;0.10;;;;;;;;;;5068431;28;20514;-66
2021/06/24 11:06:36;;;;;;;0.00;0.00;;;;;;;;;;5071398;28;20392;-66
2021/06/24 11:09:11;;;;;;;0.00;0.00;;;;;;;;;;5075807;28;20257;-66
2021/06/24 11:11:38;;;;;;;0.10;0.10;;;;;;;;;;5070946;28;20281;-65
2021/06/24 11:14:04;;;;;;;0.00;0.00;;;;;;;;;;5075431;28;20202;-65
2021/06/24 11:16:31;;;;;;;0.00;0.00;;;;;;;;;;5076303;28;20206;-64
2021/06/24 11:19:00;;;;;;;0.00;0.00;;;;;;;;;;5078459;28;20274;-71
2021/06/24 11:21:42;;;;;;;0.10;0.10;;;;;;;;;;5085300;28;20197;-67
2021/06/24 11:24:17;;;;;;;0.10;0.10;;;;;;;;;;5084773;28;20234;-67
2021/06/24 11:26:44;;;;;;;0.10;0.10;;;;;;;;;;5085222;28;20213;-68
2021/06/24 11:29:17;;;;;;;0.00;0.00;;;;;;;;;;5085052;28;20206;-67
2021/06/24 11:31:48;;;;;;;0.00;0.00;;;;;;;;;;5081169;28;20499;-67
2021/06/24 11:34:20;;;;;;;0.00;0.00;;;;;;;;;;5071803;28;20237;-68
2021/06/24 11:36:47;;;;;;;0.00;0.00;;;;;;;;;;5083773;28;20511;-68
2021/06/24 11:39:20;;;;;;;0.00;0.00;;;;;;;;;;5075145;28;20278;-68
2021/06/24 11:41:52;;;;;;;0.00;0.00;;;;;;;;;;5084393;28;20237;-68
2021/06/24 11:44:23;;;;;;;0.10;0.10;;;;;;;;;;5078718;28;20229;-68
2021/06/24 11:46:54;;;;;;;0.00;0.00;;;;;;;;;;5082780;28;20382;-67
2021/06/24 11:49:29;;;;;;;0.10;0.10;;;;;;;;;;5070812;28;20253;-68
2021/06/24 12:00:32;;;;;;;0.10;0.10;;;;;;;;;;5073850;28;20445;-68
2021/06/24 12:03:06;;;;;;;0.10;0.10;;;;;;;;;;5078501;28;20263;-68
2021/06/24 12:05:33;;;;;;;0.10;0.10;;;;;;;;;;5081568;28;20304;-67
2021/06/24 12:07:59;;;;;;;0.00;0.00;;;;;;;;;;5084134;28;20206;-67
2021/06/24 12:10:25;;;;;;;0.10;0.10;;;;;;;;;;5079438;28;20222;-66
2021/06/24 12:12:53;;;;;;;0.10;0.10;;;;;;;;;;5084134;28;20210;-66
2021/06/24 12:15:19;;;;;;;0.00;0.00;;;;;;;;;;5079529;28;20215;-67
2021/06/24 12:17:46;;;;;;;0.00;0.00;;;;;;;;;;5078754;28;20207;-66
2021/06/24 12:20:15;;;;;;;0.03;0.03;;;;;;;;;;5073485;28;20215;-69
2021/06/24 12:22:47;;;;;;;0.00;0.00;;;;;;;;;;5076912;28;20204;-69
2021/06/24 12:25:14;;;;;;;0.10;0.10;;;;;;;;;;5078118;28;20268;-67
2021/06/24 12:27:41;;;;;;;0.00;0.00;;;;;;;;;;5076276;28;20296;-68
2021/06/24 12:30:10;;;;;;;0.00;0.00;;;;;;;;;;5076923;28;20255;-67
2021/06/24 12:32:37;;;;;;;0.00;0.00;;;;;;;;;;5070750;28;20262;-69
2021/06/24 12:35:04;;;;;;;0.00;0.00;;;;;;;;;;5083840;28;20380;-69
2021/06/24 12:37:32;;;;;;;0.00;0.00;;;;;;;;;;5083783;28;20217;-68
2021/06/24 12:39:59;;;;;;;0.00;0.00;;;;;;;;;;5082887;28;20419;-69
2021/06/24 12:42:26;;;;;;;0.10;0.10;;;;;;;;;;5080922;28;20390;-69
2021/06/24 12:44:52;;;;;;;0.00;0.00;;;;;;;;;;5081652;28;20254;-67
2021/06/24 12:47:38;;;;;;;0.00;0.00;;;;;;;;;;5077554;28;20198;-67
2021/06/24 12:50:15;;;;;;;0.00;0.00;;;;;;;;;;5072148;28;20522;-68
2021/06/24 12:52:44;;;;;;;0.00;0.00;;;;;;;;;;5075538;28;20248;-67
2021/06/24 12:55:31;;;;;;;0.00;0.00;;;;;;;;;;5083924;28;20211;-66
2021/06/24 12:57:59;;;;;;;0.00;0.00;;;;;;;;;;5083432;28;20243;-66
2021/06/24 13:00:25;;;;;;;0.10;0.10;;;;;;;;;;5083695;28;20213;-67
2021/06/24 13:02:53;;;;;;;0.00;0.00;;;;;;;;;;5077838;28;20197;-68
2021/06/24 13:05:25;;;;;;;0.10;0.10;;;;;;;;;;5070886;28;20226;-67
2021/06/24 13:07:55;;;;;;;0.00;0.00;;;;;;;;;;5078673;28;20210;-67
2021/06/24 13:10:21;;;;;;;0.00;0.00;;;;;;;;;;5081351;28;20225;-67
2021/06/24 13:12:48;;;;;;;0.00;0.00;;;;;;;;;;5074257;28;20254;-68
2021/06/24 13:15:29;;;;;;;0.00;0.00;;;;;;;;;;5076704;28;20209;-68
2021/06/24 13:17:57;;;;;;;0.10;0.10;;;;;;;;;;5069267;28;20205;-67
2021/06/24 13:20:23;;;;;;;0.00;0.00;;;;;;;;;;5075139;28;20278;-69
2021/06/24 13:22:49;;;;;;;0.00;0.00;;;;;;;;;;5070134;28;20198;-68
2021/06/24 13:25:19;;;;;;;0.05;0.05;;;;;;;;;;5066818;28;20244;-68
2021/06/24 13:27:46;;;;;;;0.00;0.00;;;;;;;;;;5077286;28;20524;-69
2021/06/24 13:30:13;;;;;;;0.10;0.10;;;;;;;;;;5082428;28;20202;-68
2021/06/24 13:32:41;;;;;;;0.00;0.00;;;;;;;;;;5082771;28;20228;-68
2021/06/24 13:35:12;;;;;;;0.10;0.10;;;;;;;;;;5083061;28;20274;-68
2021/06/24 13:37:48;;;;;;;0.10;0.10;;;;;;;;;;5082859;28;20200;-68
2021/06/24 13:40:16;;;;;;;0.10;0.10;;;;;;;;;;5082574;28;20492;-68
2021/06/24 13:42:49;;;;;;;0.05;0.05;;;;;;;;;;5072089;28;20306;-69
2021/06/24 13:45:15;;;;;;;0.00;0.00;;;;;;;;;;5068529;28;20212;-69
2021/06/24 13:47:41;;;;;;;0.10;0.10;;;;;;;;;;5066872;28;20483;-69
2021/06/24 13:50:08;;;;;;;0.00;0.00;;;;;;;;;;5077017;28;20201;-69
2021/06/24 13:52:35;;;;;;;0.05;0.05;;;;;;;;;;5066057;28;20462;-69
2021/06/24 13:55:02;;;;;;;0.10;0.10;;;;;;;;;;5082886;28;20250;-70
2021/06/24 13:57:29;;;;;;;0.10;0.10;;;;;;;;;;5082811;28;20211;-67
2021/06/24 13:59:55;;;;;;;0.00;0.00;;;;;;;;;;5082983;28;20214;-67
2021/06/24 14:02:21;;;;;;;0.00;0.00;;;;;;;;;;5083671;28;20204;-68
2021/06/24 14:04:47;;;;;;;0.00;0.00;;;;;;;;;;5083834;28;20252;-67
2021/06/24 14:07:14;;;;;;;0.00;0.00;;;;;;;;;;5079113;28;20203;-69
2021/06/24 14:09:41;;;;;;;0.00;0.00;;;;;;;;;;5085797;28;20202;-69
2021/06/24 14:12:08;;;;;;;0.10;0.10;;;;;;;;;;5066637;28;20232;-68
2021/06/24 14:14:34;;;;;;;0.03;0.03;;;;;;;;;;5080582;28;20504;-68
2021/06/24 14:17:01;;;;;;;0.00;0.00;;;;;;;;;;5086543;28;20415;-67
2021/06/24 14:19:28;;;;;;;0.00;0.00;;;;;;;;;;5086755;28;20348;-68
2021/06/24 14:21:55;;;;;;;0.00;0.00;;;;;;;;;;5086511;28;20203;-68
2021/06/24 14:24:21;;;;;;;0.10;0.10;;;;;;;;;;5086364;28;20255;-68
2021/06/24 14:26:49;;;;;;;0.10;0.10;;;;;;;;;;5083011;28;20241;-69
2021/06/24 14:29:15;;;;;;;0.10;0.10;;;;;;;;;;5077891;28;20232;-69
2021/06/24 14:31:42;;;;;;;0.00;0.00;;;;;;;;;;5083188;28;20480;-71
2021/06/24 14:34:09;;;;;;;0.10;0.10;;;;;;;;;;5086198;28;20267;-69
2021/06/24 14:36:35;;;;;;;0.00;0.00;;;;;;;;;;5086060;28;20206;-69
2021/06/24 14:39:02;;;;;;;0.05;0.05;;;;;;;;;;5086154;28;20203;-69
2021/06/24 14:41:28;;;;;;;0.10;0.10;;;;;;;;;;5075755;28;20198;-68
2021/06/24 14:43:56;;;;;;;0.08;0.08;;;;;;;;;;5066850;28;20410;-69
2021/06/24 14:46:22;;;;;;;0.08;0.08;;;;;;;;;;5075353;28;20370;-69
2021/06/24 14:48:49;;;;;;;0.00;0.00;;;;;;;;;;5085748;28;20469;-70
2021/06/24 14:51:35;;;;;;;0.00;0.00;;;;;;;;;;5074493;28;20423;-69
2021/06/24 14:54:36;;;;;;;0.05;0.05;;;;;;;;;;5079158;28;20206;-68